createdAt,value
2018-07-10T00:02:37.319Z,95220.58
2018-07-10T00:07:26.701Z,95214.11
2018-07-10T00:10:07.182Z,95229.03
2018-07-10T00:12:36.573Z,95238.16
2018-07-10T00:15:05.937Z,95232.03
2018-07-10T00:17:35.308Z,95220.78
2018-07-10T00:20:04.600Z,95222.91
2018-07-10T00:22:34.010Z,95215.16
2018-07-10T00:25:04.409Z,95216.84
2018-07-10T00:27:33.760Z,95218.79
2018-07-10T00:30:03.070Z,95213.90
2018-07-10T00:32:32.377Z,95211.42
2018-07-10T00:35:01.772Z,95211.08
2018-07-10T00:37:31.114Z,95213.61
2018-07-10T00:40:00.489Z,95198.97
2018-07-10T00:42:29.959Z,95215.34
2018-07-10T00:44:59.332Z,95216.44
2018-07-10T00:47:28.612Z,95208.27
2018-07-10T00:49:58.060Z,95210.48
2018-07-10T00:52:33.961Z,95221.01
2018-07-10T00:55:03.590Z,95210.27
2018-07-10T00:57:33.497Z,95211.11
2018-07-10T01:00:03.317Z,95208.43
2018-07-10T01:02:32.657Z,95202.24
2018-07-10T01:05:01.994Z,95195.12
2018-07-10T01:07:31.429Z,95187.55
2018-07-10T01:10:00.707Z,95197.98
2018-07-10T01:12:30.024Z,95187.69
2018-07-10T01:14:59.340Z,95187.11
2018-07-10T01:17:28.774Z,95182.72
2018-07-10T01:19:58.274Z,95180.59
2018-07-10T01:22:27.618Z,95176.02
2018-07-10T01:24:56.904Z,95173.83
2018-07-10T01:27:26.335Z,95178.61
2018-07-10T01:29:55.728Z,95169.40
2018-07-10T01:32:25.121Z,95180.03
2018-07-10T01:34:54.909Z,95173.89
2018-07-10T01:37:24.265Z,95178.87
2018-07-10T01:39:53.649Z,95182.53
2018-07-10T01:42:22.993Z,95179.78
2018-07-10T01:44:52.340Z,95169.31
2018-07-10T01:47:21.676Z,95173.32
2018-07-10T01:49:51.004Z,95172.75
2018-07-10T01:52:20.361Z,95171.63
2018-07-10T01:54:49.705Z,95166.35
2018-07-10T01:57:19.051Z,95159.55
2018-07-10T01:59:48.576Z,95155.50
2018-07-10T02:02:18.004Z,95154.16
2018-07-10T02:04:47.309Z,95154.19
2018-07-10T02:07:16.690Z,95147.84
2018-07-10T02:09:45.973Z,95154.74
2018-07-10T02:12:15.252Z,95141.45
2018-07-10T02:14:44.669Z,95148.14
2018-07-10T02:17:14.078Z,95146.01
2018-07-10T02:19:43.394Z,95150.16
2018-07-10T02:22:12.669Z,95148.14
2018-07-10T02:24:42.291Z,95147.75
2018-07-10T02:27:11.613Z,95145.05
2018-07-10T02:29:40.987Z,95145.59
2018-07-10T02:32:10.413Z,95143.89
2018-07-10T02:34:39.724Z,95143.17
2018-07-10T02:37:09.043Z,95135.28
2018-07-10T02:39:38.387Z,95140.70
2018-07-10T02:42:07.759Z,95144.77
2018-07-10T02:44:37.142Z,95136.34
2018-07-10T02:47:06.490Z,95132.91
2018-07-10T02:49:35.916Z,95131.23
2018-07-10T02:52:07.086Z,95131.88
2018-07-10T02:54:41.782Z,95128.52
2018-07-10T02:57:14.539Z,95131.20
2018-07-10T02:59:44.391Z,95130.47
2018-07-10T03:02:21.406Z,95132.89
2018-07-10T03:04:55.092Z,95131.81
2018-07-10T03:07:24.650Z,95132.59
2018-07-10T03:09:54.026Z,95134.77
2018-07-10T03:12:23.402Z,95123.62
2018-07-10T03:14:52.772Z,95127.61
2018-07-10T03:17:22.646Z,95116.28
2018-07-10T03:19:52.930Z,95117.19
2018-07-10T03:22:22.232Z,95119.95
2018-07-10T03:24:51.510Z,95127.28
2018-07-10T03:27:20.810Z,95120.70
2018-07-10T03:29:50.107Z,95118.55
2018-07-10T03:32:19.654Z,95124.31
2018-07-10T03:34:49.006Z,95129.82
2018-07-10T03:37:18.293Z,95120.33
2018-07-10T03:39:47.619Z,95121.79
2018-07-10T03:42:18.214Z,95122.30
2018-07-10T03:44:47.773Z,95122.84
2018-07-10T03:47:18.375Z,95118.38
2018-07-10T03:49:48.282Z,95112.36
2018-07-10T03:52:37.158Z,95116.86
2018-07-10T03:55:08.516Z,95118.84
2018-07-10T03:57:38.122Z,95116.86
2018-07-10T04:00:10.608Z,95115.21
2018-07-10T04:02:45.526Z,95118.13
2018-07-10T04:05:14.950Z,95123.30
2018-07-10T04:07:44.572Z,95117.66
2018-07-10T04:10:16.151Z,95114.50
2018-07-10T04:12:47.670Z,95114.56
2018-07-10T04:15:17.030Z,95111.45
2018-07-10T04:18:22.097Z,95111.56
2018-07-10T04:21:02.590Z,95117.82
2018-07-10T04:23:38.476Z,95116.00
2018-07-10T04:26:15.728Z,95120.12
2018-07-10T04:28:52.414Z,95118.84
2018-07-10T04:31:54.612Z,95118.48
2018-07-10T04:34:24.432Z,95117.27
2018-07-10T04:36:58.631Z,95119.38
2018-07-10T04:39:28.043Z,95111.58
2018-07-10T04:42:05.126Z,95115.84
2018-07-10T04:44:34.667Z,95115.15
2018-07-10T04:47:12.214Z,95115.36
2018-07-10T04:50:05.198Z,95114.66
2018-07-10T04:52:35.374Z,95117.47
2018-07-10T04:55:07.794Z,95112.47
2018-07-10T04:57:50.220Z,95111.05
2018-07-10T05:00:19.598Z,95103.90
2018-07-10T05:02:50.748Z,95105.84
2018-07-10T05:05:20.099Z,95106.63
2018-07-10T05:07:49.416Z,95101.65
2018-07-10T05:10:18.876Z,95109.11
2018-07-10T05:12:48.251Z,95102.52
2018-07-10T05:15:17.607Z,95103.28
2018-07-10T05:17:50.908Z,95102.44
2018-07-10T05:20:21.104Z,95097.94
2018-07-10T05:22:50.453Z,95107.52
2018-07-10T05:25:19.912Z,95101.65
2018-07-10T05:27:49.642Z,95107.08
2018-07-10T05:30:19.326Z,95099.16
2018-07-10T05:32:49.006Z,95101.67
2018-07-10T05:35:19.180Z,95104.41
2018-07-10T05:37:50.203Z,95101.00
2018-07-10T05:40:25.746Z,95096.37
2018-07-10T05:42:55.289Z,95102.94
2018-07-10T05:45:25.765Z,95087.20
2018-07-10T05:47:58.146Z,95090.42
2018-07-10T05:50:31.123Z,95091.19
2018-07-10T05:53:00.569Z,95092.03
2018-07-10T05:55:31.038Z,95088.47
2018-07-10T05:58:01.303Z,95087.94
2018-07-10T06:00:31.631Z,95080.41
2018-07-10T06:03:01.112Z,95076.19
2018-07-10T06:05:30.485Z,95081.05
2018-07-10T06:07:59.835Z,95076.22
2018-07-10T06:10:29.220Z,95077.94
2018-07-10T06:13:00.394Z,95074.73
2018-07-10T06:15:30.123Z,95071.66
2018-07-10T06:17:59.527Z,95065.14
2018-07-10T06:20:28.897Z,95060.41
2018-07-10T06:22:58.649Z,95067.46
2018-07-10T06:25:33.400Z,95073.60
2018-07-10T06:28:08.993Z,95080.45
2018-07-10T06:30:39.305Z,95069.01
2018-07-10T06:33:20.672Z,95072.08
2018-07-10T06:36:00.104Z,95080.82
2018-07-10T06:38:29.470Z,95073.00
2018-07-10T06:40:58.780Z,95075.80
2018-07-10T06:43:37.600Z,95074.26
2018-07-10T06:46:07.000Z,95073.54
2018-07-10T06:48:37.823Z,95071.25
2018-07-10T06:51:13.263Z,95070.84
2018-07-10T06:53:42.680Z,95070.52
2018-07-10T06:56:12.050Z,95067.03
2018-07-10T06:58:41.413Z,95067.68
2018-07-10T07:01:10.764Z,95057.06
2018-07-10T07:03:40.484Z,95060.29
2018-07-10T07:06:09.805Z,95051.92
2018-07-10T07:08:39.137Z,95056.97
2018-07-10T07:11:08.620Z,95057.06
2018-07-10T07:13:38.008Z,95056.81
2018-07-10T07:16:07.377Z,95044.91
2018-07-10T07:18:37.557Z,95045.09
2018-07-10T07:21:06.950Z,95044.66
2018-07-10T07:23:36.393Z,95040.39
2018-07-10T07:26:05.890Z,95048.66
2018-07-10T07:28:35.299Z,95049.37
2018-07-10T07:31:05.658Z,95043.55
2018-07-10T07:33:35.297Z,95048.64
2018-07-10T07:36:04.708Z,95035.83
2018-07-10T07:38:34.154Z,95043.12
2018-07-10T07:41:03.481Z,95034.38
2018-07-10T07:43:34.813Z,95040.18
2018-07-10T07:46:04.222Z,95044.38
2018-07-10T07:48:34.627Z,95039.46
2018-07-10T07:51:04.028Z,95047.88
2018-07-10T07:53:33.333Z,95047.36
2018-07-10T07:56:02.719Z,95048.00
2018-07-10T07:58:32.093Z,95055.40
2018-07-10T08:01:01.410Z,95059.33
2018-07-10T08:03:30.960Z,95054.96
2018-07-10T08:06:00.395Z,95054.08
2018-07-10T08:08:29.830Z,95051.53
2018-07-10T08:10:59.190Z,95043.38
2018-07-10T08:13:28.638Z,95034.81
2018-07-10T08:15:58.019Z,95033.26
2018-07-10T08:18:27.562Z,95025.69
2018-07-10T08:20:57.212Z,95024.36
2018-07-10T08:23:26.625Z,95025.63
2018-07-10T08:25:56.477Z,95029.81
2018-07-10T08:28:25.891Z,95031.36
2018-07-10T08:30:55.465Z,95032.02
2018-07-10T08:33:24.899Z,95029.44
2018-07-10T08:35:54.265Z,95033.60
2018-07-10T08:38:41.036Z,95028.20
2018-07-10T08:41:16.583Z,95026.84
2018-07-10T08:43:46.196Z,95032.23
2018-07-10T08:46:16.796Z,95034.73
2018-07-10T08:48:47.594Z,95022.86
2018-07-10T08:51:17.182Z,95028.80
2018-07-10T08:53:47.075Z,95032.08
2018-07-10T08:56:16.560Z,95021.16
2018-07-10T08:58:46.021Z,95017.91
2018-07-10T09:01:15.463Z,95012.92
2018-07-10T09:03:44.922Z,95015.87
2018-07-10T09:06:14.564Z,95015.20
2018-07-10T09:08:44.025Z,95009.67
2018-07-10T09:11:13.469Z,95012.34
2018-07-10T09:13:42.861Z,95010.98
2018-07-10T09:16:12.246Z,95003.14
2018-07-10T09:18:41.589Z,94996.30
2018-07-10T09:21:11.252Z,94993.45
2018-07-10T09:23:40.798Z,94997.19
2018-07-10T09:26:10.298Z,94993.81
2018-07-10T09:28:40.743Z,94995.60
2018-07-10T09:31:10.417Z,94986.41
2018-07-10T09:33:39.843Z,94986.03
2018-07-10T09:36:09.246Z,94982.02
2018-07-10T09:38:38.603Z,94980.63
2018-07-10T09:41:08.725Z,94980.41
2018-07-10T09:43:38.577Z,94984.69
2018-07-10T09:46:08.030Z,94980.48
2018-07-10T09:48:37.454Z,94978.64
2018-07-10T09:51:07.113Z,94984.30
2018-07-10T09:53:36.501Z,94984.98
2018-07-10T09:56:05.971Z,94980.25
2018-07-10T09:58:36.164Z,94984.77
2018-07-10T10:01:10.824Z,94986.21
2018-07-10T10:03:40.244Z,94988.35
2018-07-10T10:06:10.236Z,94983.05
2018-07-10T10:08:39.655Z,94990.80
2018-07-10T10:11:09.050Z,94987.08
2018-07-10T10:13:38.472Z,94983.52
2018-07-10T10:16:08.047Z,94980.22
2018-07-10T10:18:38.566Z,94972.44
2018-07-10T10:21:07.980Z,94965.45
2018-07-10T10:23:37.396Z,94959.40
2018-07-10T10:26:06.866Z,94953.63
2018-07-10T10:28:36.323Z,94963.19
2018-07-10T10:31:05.737Z,94953.48
2018-07-10T10:33:35.295Z,94956.63
2018-07-10T10:36:04.745Z,94952.23
2018-07-10T10:38:37.142Z,94951.03
2018-07-10T10:41:06.593Z,94942.65
2018-07-10T10:43:36.503Z,94949.44
2018-07-10T10:46:05.930Z,94942.05
2018-07-10T10:48:36.309Z,94937.86
2018-07-10T10:51:06.101Z,94936.59
2018-07-10T10:53:35.531Z,94939.20
2018-07-10T10:56:04.930Z,94941.28
2018-07-10T10:58:34.317Z,94939.45
2018-07-10T11:01:03.822Z,94946.77
2018-07-10T11:03:33.251Z,94940.80
2018-07-10T11:06:02.673Z,94935.30
2018-07-10T11:08:32.034Z,94941.38
2018-07-10T11:11:01.442Z,94941.70
2018-07-10T11:13:30.817Z,94945.91
2018-07-10T11:16:00.178Z,94942.75
2018-07-10T11:18:37.053Z,94940.98
2018-07-10T11:23:15.137Z,94937.84
2018-07-10T11:25:44.621Z,94949.46
2018-07-10T11:28:14.887Z,94952.82
2018-07-10T11:30:44.296Z,94946.13
2018-07-10T11:33:13.687Z,94948.95
2018-07-10T11:35:43.145Z,94949.52
2018-07-10T11:38:13.798Z,94952.12
2018-07-10T11:40:47.314Z,94956.48
2018-07-10T11:43:16.644Z,94964.59
2018-07-10T11:45:46.014Z,94961.60
2018-07-10T11:48:15.308Z,94958.75
2018-07-10T11:50:44.722Z,94951.44
2018-07-10T11:53:14.171Z,94955.53
2018-07-10T11:55:44.574Z,94943.56
2018-07-10T11:58:13.976Z,94953.89
2018-07-10T12:00:43.376Z,94953.89
2018-07-10T12:03:12.847Z,94964.75
2018-07-10T12:05:42.448Z,94960.08
2018-07-10T12:08:11.857Z,94949.37
2018-07-10T12:10:41.237Z,94952.13
2018-07-10T12:13:10.734Z,94948.07
2018-07-10T12:15:40.096Z,94953.33
2018-07-10T12:18:09.557Z,94944.79
2018-07-10T12:20:41.212Z,94947.78
2018-07-10T12:23:11.594Z,94945.36
2018-07-10T12:25:44.123Z,94952.85
2018-07-10T12:28:17.542Z,94941.92
2018-07-10T12:30:47.058Z,94933.42
2018-07-10T12:33:16.559Z,94934.91
2018-07-10T12:35:45.937Z,94944.70
2018-07-10T12:38:15.308Z,94935.25
2018-07-10T12:40:44.752Z,94944.55
2018-07-10T12:43:14.137Z,94932.34
2018-07-10T12:45:43.619Z,94932.09
2018-07-10T12:48:13.066Z,94929.40
2018-07-10T12:50:42.452Z,94934.73
2018-07-10T12:53:11.998Z,94929.00
2018-07-10T12:55:41.370Z,94931.41
2018-07-10T12:58:10.800Z,94929.00
2018-07-10T13:00:40.675Z,94927.07
2018-07-10T13:03:11.196Z,94922.44
2018-07-10T13:05:49.066Z,94919.79
2018-07-10T13:08:19.026Z,94927.03
2018-07-10T13:10:48.414Z,94927.23
2018-07-10T13:13:17.908Z,94924.59
2018-07-10T13:15:47.248Z,94914.50
2018-07-10T13:18:20.014Z,94912.77
2018-07-10T13:20:49.593Z,94916.30
2018-07-10T13:23:19.274Z,94920.20
2018-07-10T13:25:48.649Z,94907.11
2018-07-10T13:28:18.051Z,94910.52
2018-07-10T13:30:47.449Z,94913.45
2018-07-10T13:33:17.142Z,94914.16
2018-07-10T13:35:46.599Z,94910.48
2018-07-10T13:38:19.490Z,94914.24
2018-07-10T13:40:48.956Z,94914.66
2018-07-10T13:43:18.361Z,94902.39
2018-07-10T13:45:47.720Z,94897.75
2018-07-10T13:48:17.070Z,94897.05
2018-07-10T13:50:46.386Z,94903.55
2018-07-10T13:53:15.800Z,94898.89
2018-07-10T13:55:45.118Z,94897.58
2018-07-10T13:58:18.489Z,94890.28
2018-07-10T14:00:52.823Z,94892.84
2018-07-10T14:03:22.299Z,94891.69
2018-07-10T14:05:52.165Z,94883.25
2018-07-10T14:08:21.570Z,94895.83
2018-07-10T14:10:50.912Z,94881.44
2018-07-10T14:13:20.369Z,94891.94
2018-07-10T14:15:49.807Z,94886.22
2018-07-10T14:18:19.376Z,94886.20
2018-07-10T14:20:51.462Z,94884.14
2018-07-10T14:23:21.147Z,94885.86
2018-07-10T14:25:51.124Z,94884.26
2018-07-10T14:28:20.681Z,94878.59
2018-07-10T14:30:49.973Z,94877.47
2018-07-10T14:33:19.876Z,94877.93
2018-07-10T14:35:49.286Z,94880.63
2018-07-10T14:38:21.107Z,94866.72
2018-07-10T14:40:51.380Z,94868.33
2018-07-10T14:43:24.332Z,94869.92
2018-07-10T14:45:54.885Z,94870.12
2018-07-10T14:48:24.706Z,94862.95
2018-07-10T14:50:56.692Z,94865.33
2018-07-10T14:53:26.196Z,94870.48
2018-07-10T14:55:55.593Z,94870.63
2018-07-10T14:58:24.938Z,94863.65
2018-07-10T15:00:54.337Z,94863.42
2018-07-10T15:03:23.781Z,94860.82
2018-07-10T15:05:53.233Z,94856.83
2018-07-10T15:08:22.583Z,94863.88
2018-07-10T15:10:51.998Z,94857.27
2018-07-10T15:13:21.339Z,94854.63
2018-07-10T15:15:59.734Z,94850.81
2018-07-10T15:18:34.205Z,94847.44
2018-07-10T15:21:03.564Z,94842.34
2018-07-10T15:23:33.003Z,94834.28
2018-07-10T15:26:02.351Z,94835.72
2018-07-10T15:28:31.789Z,94839.48
2018-07-10T15:31:01.311Z,94837.11
2018-07-10T15:33:30.718Z,94831.15
2018-07-10T15:36:01.295Z,94823.41
2018-07-10T15:38:30.722Z,94822.75
2018-07-10T15:41:00.553Z,94822.70
2018-07-10T15:43:29.917Z,94816.59
2018-07-10T15:45:59.287Z,94818.16
2018-07-10T15:48:28.651Z,94814.75
2018-07-10T15:50:57.995Z,94822.05
2018-07-10T15:53:27.563Z,94818.63
2018-07-10T15:55:56.939Z,94819.63
2018-07-10T15:58:26.249Z,94816.08
2018-07-10T16:00:55.639Z,94814.26
2018-07-10T16:03:25.027Z,94817.24
2018-07-10T16:05:54.862Z,94812.17
2018-07-10T16:08:24.343Z,94808.37
2018-07-10T16:11:00.894Z,94812.56
2018-07-10T16:13:37.099Z,94820.91
2018-07-10T16:16:07.121Z,94815.20
2018-07-10T16:18:36.666Z,94814.64
2018-07-10T16:21:12.474Z,94812.00
2018-07-10T16:23:41.918Z,94807.45
2018-07-10T16:26:15.595Z,94812.34
2018-07-10T16:28:45.521Z,94805.68
2018-07-10T16:31:16.559Z,94804.02
2018-07-10T16:33:45.956Z,94811.70
2018-07-10T16:36:15.660Z,94813.66
2018-07-10T16:38:45.753Z,94820.20
2018-07-10T16:41:22.198Z,94810.34
2018-07-10T16:43:52.426Z,94813.59
2018-07-10T16:46:27.392Z,94815.98
2018-07-10T16:49:39.265Z,94819.85
2018-07-10T16:52:16.906Z,94823.47
2018-07-10T16:54:46.713Z,94816.23
2018-07-10T16:57:16.076Z,94819.91
2018-07-10T16:59:45.439Z,94823.05
2018-07-10T17:02:14.790Z,94816.34
2018-07-10T17:04:44.280Z,94812.44
2018-07-10T17:07:13.624Z,94806.41
2018-07-10T17:09:42.990Z,94797.76
2018-07-10T17:12:12.300Z,94798.91
2018-07-10T17:14:47.429Z,94791.66
2018-07-10T17:17:16.870Z,94784.36
2018-07-10T17:19:46.189Z,94767.38
2018-07-10T17:22:15.461Z,94784.77
2018-07-10T17:24:44.849Z,94790.00
2018-07-10T17:27:14.247Z,94789.98
2018-07-10T17:29:43.641Z,94791.45
2018-07-10T17:32:12.949Z,94797.05
2018-07-10T17:34:42.294Z,94794.43
2018-07-10T17:37:11.606Z,94795.55
2018-07-10T17:39:40.964Z,94789.16
2018-07-10T17:42:10.318Z,94791.02
2018-07-10T17:44:39.694Z,94785.72
2018-07-10T17:47:09.211Z,94784.48
2018-07-10T17:49:38.559Z,94790.62
2018-07-10T17:52:08.114Z,94798.13
2018-07-10T17:57:05.942Z,94800.80
2018-07-10T17:59:35.562Z,94793.48
2018-07-10T18:02:13.234Z,94791.69
2018-07-10T18:04:42.947Z,94791.81
2018-07-10T18:07:12.443Z,94792.86
2018-07-10T18:09:41.834Z,94791.87
2018-07-10T18:12:11.172Z,94783.83
2018-07-10T18:14:40.550Z,94787.41
2018-07-10T18:17:09.989Z,94781.42
2018-07-10T18:19:39.452Z,94780.09
2018-07-10T18:22:09.173Z,94786.94
2018-07-10T18:24:38.518Z,94792.95
2018-07-10T18:27:07.906Z,94800.32
2018-07-10T18:29:37.351Z,94811.95
2018-07-10T18:32:06.729Z,94821.55
2018-07-10T18:34:36.090Z,94822.62
2018-07-10T18:37:05.500Z,94826.23
2018-07-10T18:39:34.840Z,94830.41
2018-07-10T18:42:04.401Z,94829.96
2018-07-10T18:44:33.682Z,94823.75
2018-07-10T18:47:03.146Z,94817.82
2018-07-10T18:49:32.613Z,94825.90
2018-07-10T18:52:02.062Z,94836.22
2018-07-10T18:54:36.849Z,94831.05
2018-07-10T18:57:19.660Z,94835.20
2018-07-10T19:00:00.338Z,94836.72
2018-07-10T19:03:06.240Z,94831.63
2018-07-10T19:05:47.017Z,94833.64
2018-07-10T19:08:16.735Z,94845.50
2018-07-10T19:10:47.093Z,94853.92
2018-07-10T19:13:17.441Z,94852.52
2018-07-10T19:15:48.313Z,94851.86
2018-07-10T19:18:18.102Z,94856.45
2018-07-10T19:20:58.080Z,94852.44
2018-07-10T19:23:37.259Z,94855.69
2018-07-10T19:26:07.326Z,94849.95
2018-07-10T19:28:36.717Z,94851.56
2018-07-10T19:31:14.233Z,94855.30
2018-07-10T19:33:44.850Z,94860.11
2018-07-10T19:36:14.286Z,94859.80
2018-07-10T19:38:43.689Z,94865.61
2018-07-10T19:41:13.063Z,94859.72
2018-07-10T19:43:42.547Z,94859.06
2018-07-10T19:46:12.129Z,94856.76
2018-07-10T19:48:45.314Z,94856.72
2018-07-10T19:51:14.754Z,94860.73
2018-07-10T19:53:46.410Z,94863.10
2018-07-10T19:56:15.763Z,94866.23
2018-07-10T19:58:45.739Z,94878.23
2018-07-10T20:01:20.101Z,94876.80
2018-07-10T20:04:05.754Z,94871.58
2018-07-10T20:06:40.085Z,94870.50
2018-07-10T20:09:14.231Z,94871.58
2018-07-10T20:11:56.267Z,94875.09
2018-07-10T20:14:25.840Z,94876.63
2018-07-10T20:17:03.688Z,94886.02
2018-07-10T20:19:43.124Z,94879.01
2018-07-10T20:22:16.037Z,94883.70
2018-07-10T20:25:01.305Z,94882.36
2018-07-10T20:27:37.528Z,94884.89
2018-07-10T20:30:16.568Z,94889.44
2018-07-10T20:32:54.231Z,94889.92
2018-07-10T20:35:28.311Z,94894.84
2018-07-10T20:37:58.654Z,94897.84
2018-07-10T20:40:32.962Z,94891.52
2018-07-10T20:43:10.414Z,94883.99
2018-07-10T20:46:01.121Z,94883.73
2018-07-10T20:48:40.018Z,94883.80
2018-07-10T20:51:11.394Z,94890.02
2018-07-10T20:54:17.544Z,94887.14
2018-07-10T20:57:01.308Z,94892.31
2018-07-10T20:59:38.181Z,94889.89
2018-07-10T21:02:10.124Z,94888.82
2018-07-10T21:04:49.940Z,94894.37
2018-07-10T21:07:28.745Z,94894.39
2018-07-10T21:10:09.765Z,94903.70
2018-07-10T21:12:48.085Z,94897.41
2018-07-10T21:15:34.792Z,94906.58
2018-07-10T21:18:16.719Z,94901.05
2018-07-10T21:20:57.251Z,94904.55
2018-07-10T21:23:38.372Z,94902.39
2018-07-10T21:26:19.566Z,94895.63
2018-07-10T21:28:53.973Z,94903.07
2018-07-10T21:31:34.005Z,94893.18
2018-07-10T21:34:11.073Z,94895.35
2018-07-10T21:36:57.515Z,94894.72
2018-07-10T21:39:37.039Z,94890.69
2018-07-10T21:42:19.507Z,94895.77
2018-07-10T21:47:02.020Z,94897.70
2018-07-10T21:50:03.573Z,94899.28
2018-07-10T21:52:33.569Z,94903.70
2018-07-10T21:55:04.003Z,94898.08
2018-07-10T21:57:40.650Z,94909.55
2018-07-10T22:00:10.861Z,94914.47
2018-07-10T22:02:41.027Z,94915.16
2018-07-10T22:05:11.276Z,94917.24
2018-07-10T22:07:41.603Z,94926.77
2018-07-10T22:10:11.797Z,94919.11
2018-07-10T22:12:47.189Z,94924.75
2018-07-10T22:15:17.357Z,94925.87
2018-07-10T22:17:47.683Z,94928.47
2018-07-10T22:20:17.349Z,94925.83
2018-07-10T22:22:46.924Z,94928.75
2018-07-10T22:25:16.809Z,94922.88
2018-07-10T22:27:46.793Z,94924.98
2018-07-10T22:30:21.815Z,94924.66
2018-07-10T22:32:56.295Z,94930.71
2018-07-10T22:35:26.527Z,94929.67
2018-07-10T22:37:56.649Z,94933.00
2018-07-10T22:40:26.283Z,94930.42
2018-07-10T22:42:56.637Z,94934.13
2018-07-10T22:45:28.068Z,94930.25
2018-07-10T22:47:58.214Z,94926.48
2018-07-10T22:50:28.460Z,94932.70
2018-07-10T22:53:00.808Z,94927.60
2018-07-10T22:55:31.992Z,94930.61
2018-07-10T22:58:06.286Z,94931.39
2018-07-10T23:00:37.380Z,94930.94
2018-07-10T23:03:26.976Z,94926.48
2018-07-10T23:05:56.773Z,94928.90
2018-07-10T23:08:35.347Z,94927.20
2018-07-10T23:11:06.615Z,94928.53
2018-07-10T23:13:40.712Z,94925.81
2018-07-10T23:16:09.946Z,94925.77
2018-07-10T23:18:39.896Z,94928.34
2018-07-10T23:21:12.204Z,94926.50
2018-07-10T23:23:42.159Z,94927.74
2018-07-10T23:26:15.730Z,94924.73
2018-07-10T23:28:45.326Z,94925.77
2018-07-10T23:31:14.892Z,94923.56
2018-07-10T23:33:45.247Z,94918.72
2018-07-10T23:36:14.472Z,94920.94
2018-07-10T23:39:16.204Z,94920.24
2018-07-10T23:42:49.773Z,94925.98
2018-07-10T23:45:25.354Z,94920.44
2018-07-10T23:47:55.171Z,94921.86
2018-07-10T23:50:27.167Z,94927.89
2018-07-10T23:53:07.488Z,94924.06
2018-07-10T23:55:36.596Z,94927.38
2018-07-10T23:58:06.037Z,94925.66
